Time;durP1;ratioP1;P1;durP2;ratioP2;P2;SDS_P1;SDS_P2;PMS_P1;PMS_P2;Temp;Humidity;BMP_temperature;BMP_pressure;BME280_temperature;BME280_humidity;BME280_pressure;Samples;Min_cycle;Max_cycle;Signal;HPM_P1;HPM_P2
2023/08/29 00:01:12;;;;;;;;;;;15.60;79.40;;;;;;5092285;28;19912;-36
2023/08/29 00:03:37;;;;;;;;;;;15.60;79.50;;;;;;5093631;28;19915;-34
2023/08/29 00:06:04;;;;;;;;;;;15.60;79.50;;;;;;5093287;28;20295;-36
2023/08/29 00:08:29;;;;;;;;;;;15.60;79.50;;;;;;5092917;28;19916;-36
2023/08/29 00:10:55;;;;;;;;;;;15.60;79.60;;;;;;5093666;28;19912;-38
2023/08/29 00:13:21;;;;;;;;;;;15.60;79.60;;;;;;5093228;28;19924;-34
2023/08/29 00:15:46;;;;;;;;;;;15.60;79.60;;;;;;5091768;28;19912;-36
2023/08/29 00:18:12;;;;;;;;;;;15.60;79.80;;;;;;5093125;28;19908;-36
2023/08/29 00:20:37;;;;;;;;;;;15.60;79.90;;;;;;5093213;28;20341;-36
2023/08/29 00:23:03;;;;;;;;;;;15.60;79.90;;;;;;5093091;28;20003;-35
2023/08/29 00:25:28;;;;;;;;;;;15.60;79.90;;;;;;5092918;28;20383;-35
2023/08/29 00:27:54;;;;;;;;;;;15.60;79.90;;;;;;5091607;28;19955;-35
2023/08/29 00:30:19;;;;;;;;;;;15.60;80.00;;;;;;5092961;28;19908;-34
2023/08/29 00:32:45;;;;;;;;;;;15.60;79.90;;;;;;5092734;28;19912;-35
2023/08/29 00:35:10;;;;;;;;;;;15.60;79.90;;;;;;5092801;28;19947;-35
2023/08/29 00:37:35;;;;;;;;;;;15.60;80.00;;;;;;5092790;28;19939;-36
2023/08/29 00:40:01;;;;;;;;;;;15.60;80.00;;;;;;5092812;28;20015;-35
2023/08/29 00:42:27;;;;;;;;;;;15.60;80.10;;;;;;5092676;28;20309;-36
2023/08/29 00:44:52;;;;;;;;;;;15.60;80.10;;;;;;5092491;28;19915;-35
2023/08/29 00:47:17;;;;;;;;;;;15.50;80.10;;;;;;5092623;28;19915;-34
2023/08/29 00:49:43;;;;;;;;;;;15.60;80.30;;;;;;5092457;28;20413;-35
2023/08/29 00:52:08;;;;;;;;;;;15.40;80.20;;;;;;5092520;28;20015;-36
2023/08/29 00:54:34;;;;;;;;;;;15.40;80.30;;;;;;5092342;28;19912;-35
2023/08/29 00:56:59;;;;;;;;;;;15.40;80.40;;;;;;5092613;28;20361;-35
2023/08/29 00:59:25;;;;;;;;;;;15.30;80.50;;;;;;5092517;28;20372;-36
2023/08/29 01:01:50;;;;;;;;;;;15.30;80.60;;;;;;5091951;28;19908;-36
2023/08/29 01:04:16;;;;;;;;;;;15.30;80.70;;;;;;5092206;28;19908;-35
2023/08/29 01:06:41;;;;;;;;;;;15.20;80.60;;;;;;5092275;28;20374;-35
2023/08/29 01:09:07;;;;;;;;;;;15.20;80.70;;;;;;5092270;28;19908;-35
2023/08/29 01:11:51;;;;;;;;;;;15.20;80.70;;;;;;5092380;28;20383;-34
2023/08/29 01:14:31;;;;;;;;;;;15.20;80.70;;;;;;5092143;28;19919;-36
2023/08/29 01:17:06;;;;;;;;;;;15.20;80.70;;;;;;5092185;28;20232;-35
2023/08/29 01:19:33;;;;;;;;;;;15.20;81.30;;;;;;5091410;28;19937;-33
2023/08/29 01:21:58;;;;;;;;;;;15.30;80.70;;;;;;5092191;28;19915;-36
2023/08/29 01:24:36;;;;;;;;;;;15.30;80.70;;;;;;5091779;28;19995;-33
2023/08/29 01:27:02;;;;;;;;;;;15.20;80.70;;;;;;5092146;28;19919;-35
2023/08/29 01:29:28;;;;;;;;;;;15.30;81.40;;;;;;5092142;28;19908;-36
2023/08/29 01:31:53;;;;;;;;;;;15.30;80.80;;;;;;5091920;28;19931;-33
2023/08/29 01:34:19;;;;;;;;;;;15.30;80.80;;;;;;5091854;28;20364;-35
2023/08/29 01:36:45;;;;;;;;;;;15.30;80.80;;;;;;5091847;28;20228;-35
2023/08/29 01:39:10;;;;;;;;;;;15.20;80.90;;;;;;5091916;28;20398;-35
2023/08/29 01:41:36;;;;;;;;;;;15.20;81.00;;;;;;5091788;28;19915;-35
2023/08/29 01:44:02;;;;;;;;;;;15.20;81.10;;;;;;5091768;28;20294;-35
2023/08/29 01:46:28;;;;;;;;;;;15.20;81.20;;;;;;5091816;28;19948;-35
2023/08/29 01:48:53;;;;;;;;;;;15.10;81.30;;;;;;5091666;28;20378;-40
2023/08/29 01:51:19;;;;;;;;;;;15.10;81.20;;;;;;5091621;28;19942;-35
2023/08/29 01:53:45;;;;;;;;;;;15.10;81.30;;;;;;5091706;28;19924;-35
2023/08/29 01:56:11;;;;;;;;;;;15.10;81.30;;;;;;5091630;28;19908;-35
2023/08/29 01:58:38;;;;;;;;;;;15.10;81.40;;;;;;5091822;28;20314;-36
2023/08/29 02:01:03;;;;;;;;;;;15.10;81.40;;;;;;5091520;28;19961;-36
2023/08/29 02:03:29;;;;;;;;;;;15.10;81.40;;;;;;5091444;28;19920;-35
2023/08/29 02:05:54;;;;;;;;;;;15.10;81.40;;;;;;5091456;28;19920;-35
2023/08/29 02:08:20;;;;;;;;;;;15.00;81.40;;;;;;5090341;28;19915;-35
2023/08/29 02:10:45;;;;;;;;;;;15.00;81.40;;;;;;5091577;28;19912;-35
2023/08/29 02:13:11;;;;;;;;;;;15.00;81.40;;;;;;5091609;28;19989;-36
2023/08/29 02:15:36;;;;;;;;;;;15.00;81.50;;;;;;5091684;28;19908;-35
2023/08/29 02:18:02;;;;;;;;;;;15.00;81.50;;;;;;5091560;28;20383;-36
2023/08/29 02:20:28;;;;;;;;;;;15.00;81.50;;;;;;5091344;28;20360;-34
2023/08/29 02:22:53;;;;;;;;;;;15.00;81.50;;;;;;5091736;28;19916;-34
2023/08/29 02:25:19;;;;;;;;;;;15.00;81.60;;;;;;5091124;28;19908;-33
2023/08/29 02:27:44;;;;;;;;;;;15.00;81.50;;;;;;5091270;28;19970;-37
2023/08/29 02:30:10;;;;;;;;;;;15.00;81.60;;;;;;5091441;28;19944;-36
2023/08/29 02:32:37;;;;;;;;;;;15.00;81.50;;;;;;5095135;28;19934;-35
2023/08/29 02:35:03;;;;;;;;;;;15.00;81.50;;;;;;5095124;28;19947;-37
2023/08/29 02:37:28;;;;;;;;;;;15.10;81.50;;;;;;5095220;28;20368;-35
2023/08/29 02:39:54;;;;;;;;;;;15.00;81.50;;;;;;5095212;28;19962;-35
2023/08/29 02:42:19;;;;;;;;;;;15.00;81.50;;;;;;5095132;28;20419;-35
2023/08/29 02:44:45;;;;;;;;;;;15.00;81.50;;;;;;5094945;28;20224;-35
2023/08/29 02:47:10;;;;;;;;;;;15.00;82.10;;;;;;5095217;28;19974;-35
2023/08/29 02:49:36;;;;;;;;;;;15.00;81.50;;;;;;5094971;28;19908;-36
2023/08/29 02:52:01;;;;;;;;;;;15.00;81.50;;;;;;5094970;28;20048;-36
2023/08/29 02:54:27;;;;;;;;;;;15.00;81.50;;;;;;5093457;28;19916;-36
2023/08/29 02:56:52;;;;;;;;;;;15.00;81.50;;;;;;5094964;28;19978;-36
2023/08/29 02:59:18;;;;;;;;;;;15.00;81.60;;;;;;5094907;28;20376;-35
2023/08/29 03:01:43;;;;;;;;;;;15.00;81.50;;;;;;5094671;28;19908;-35
2023/08/29 03:04:10;;;;;;;;;;;15.00;81.50;;;;;;5094622;28;19915;-35
2023/08/29 03:06:35;;;;;;;;;;;15.00;81.60;;;;;;5094460;28;20359;-37
2023/08/29 03:09:01;;;;;;;;;;;15.00;81.50;;;;;;5094767;28;20017;-35
2023/08/29 03:11:27;;;;;;;;;;;15.00;81.50;;;;;;5094733;28;19981;-35
2023/08/29 03:13:52;;;;;;;;;;;15.00;81.50;;;;;;5094338;28;19916;-35
2023/08/29 03:16:18;;;;;;;;;;;15.00;81.50;;;;;;5094488;28;20003;-35
2023/08/29 03:18:43;;;;;;;;;;;15.00;81.60;;;;;;5094579;28;19931;-36
2023/08/29 03:21:09;;;;;;;;;;;15.00;81.60;;;;;;5094616;28;19908;-36
2023/08/29 03:23:35;;;;;;;;;;;14.90;81.60;;;;;;5094354;28;19912;-35
2023/08/29 03:26:04;;;;;;;;;;;15.00;81.70;;;;;;5094383;28;19917;-35
2023/08/29 03:28:29;;;;;;;;;;;14.90;81.70;;;;;;5094280;28;19908;-35
2023/08/29 03:30:55;;;;;;;;;;;14.90;81.70;;;;;;5094447;28;19912;-36
2023/08/29 03:33:20;;;;;;;;;;;14.80;81.70;;;;;;5094388;28;19920;-35
2023/08/29 03:35:56;;;;;;;;;;;14.80;81.80;;;;;;5094092;28;19908;-36
2023/08/29 03:38:21;;;;;;;;;;;14.70;81.80;;;;;;5094163;28;20432;-35
2023/08/29 03:40:54;;;;;;;;;;;14.70;81.80;;;;;;5094202;28;19912;-36
2023/08/29 03:43:19;;;;;;;;;;;14.70;81.90;;;;;;5093229;28;20147;-35
2023/08/29 03:45:45;;;;;;;;;;;14.60;81.90;;;;;;5093878;28;19908;-36
2023/08/29 03:48:10;;;;;;;;;;;14.70;82.00;;;;;;5094057;28;19972;-35
2023/08/29 03:50:36;;;;;;;;;;;14.60;82.00;;;;;;5093662;28;19952;-35
2023/08/29 03:53:02;;;;;;;;;;;14.60;82.00;;;;;;5093659;28;19970;-38
2023/08/29 03:55:28;;;;;;;;;;;14.50;82.00;;;;;;5093527;28;19908;-35
2023/08/29 03:57:53;;;;;;;;;;;14.50;82.10;;;;;;5093626;28;20364;-35
2023/08/29 04:00:19;;;;;;;;;;;14.50;82.10;;;;;;5093673;28;19908;-33
2023/08/29 04:02:44;;;;;;;;;;;14.50;82.10;;;;;;5093508;28;20253;-34
2023/08/29 04:05:11;;;;;;;;;;;14.40;82.10;;;;;;5093447;28;20321;-34
2023/08/29 04:07:37;;;;;;;;;;;14.40;82.10;;;;;;5093440;28;19920;-35
2023/08/29 04:10:04;;;;;;;;;;;14.40;82.20;;;;;;5093087;28;21600;-35
2023/08/29 04:12:30;;;;;;;;;;;14.40;82.20;;;;;;5093457;28;19951;-35
2023/08/29 04:14:55;;;;;;;;;;;14.40;82.20;;;;;;5093311;28;19908;-34
2023/08/29 04:17:21;;;;;;;;;;;14.30;82.20;;;;;;5093290;28;19912;-34
2023/08/29 04:19:47;;;;;;;;;;;14.30;82.20;;;;;;5093572;28;19912;-35
2023/08/29 04:22:13;;;;;;;;;;;14.30;82.30;;;;;;5093333;28;19908;-34
2023/08/29 04:24:38;;;;;;;;;;;14.30;82.30;;;;;;5093458;28;19919;-35
2023/08/29 04:27:04;;;;;;;;;;;14.20;82.30;;;;;;5091938;28;19955;-35
2023/08/29 04:29:30;;;;;;;;;;;14.20;82.40;;;;;;5093195;28;19908;-35
2023/08/29 04:31:55;;;;;;;;;;;14.20;82.40;;;;;;5092937;28;19915;-34
2023/08/29 04:34:23;;;;;;;;;;;14.20;82.40;;;;;;5093093;28;19912;-36
2023/08/29 04:36:49;;;;;;;;;;;14.20;82.40;;;;;;5093061;28;19930;-33
2023/08/29 04:39:14;;;;;;;;;;;14.20;82.50;;;;;;5093002;28;20007;-34
2023/08/29 04:41:40;;;;;;;;;;;14.10;82.50;;;;;;5092923;28;20363;-35
2023/08/29 04:44:05;;;;;;;;;;;14.10;82.50;;;;;;5092674;28;19953;-34
2023/08/29 04:46:31;;;;;;;;;;;14.10;82.60;;;;;;5092785;28;19909;-35
2023/08/29 04:48:56;;;;;;;;;;;14.10;82.60;;;;;;5092600;28;20326;-35
2023/08/29 04:51:23;;;;;;;;;;;14.10;82.60;;;;;;5092524;28;19959;-39
2023/08/29 04:53:48;;;;;;;;;;;14.10;82.60;;;;;;5090967;28;19923;-35
2023/08/29 04:56:14;;;;;;;;;;;14.00;82.60;;;;;;5092521;28;19916;-35
2023/08/29 04:58:40;;;;;;;;;;;14.00;82.60;;;;;;5092720;28;19908;-35
2023/08/29 05:01:06;;;;;;;;;;;14.00;82.70;;;;;;5092458;28;19961;-34
2023/08/29 05:03:31;;;;;;;;;;;14.00;82.60;;;;;;5092461;28;19912;-35
2023/08/29 05:05:57;;;;;;;;;;;14.00;82.60;;;;;;5092115;28;19931;-36
2023/08/29 05:08:23;;;;;;;;;;;14.10;82.70;;;;;;5092335;28;19912;-34
2023/08/29 05:10:48;;;;;;;;;;;14.00;82.60;;;;;;5092470;28;19919;-35
2023/08/29 05:13:14;;;;;;;;;;;14.00;82.60;;;;;;5092198;28;19916;-34
2023/08/29 05:15:41;;;;;;;;;;;14.00;82.60;;;;;;5092058;28;20375;-33
2023/08/29 05:18:07;;;;;;;;;;;14.00;82.70;;;;;;5092396;28;19912;-35
2023/08/29 05:20:32;;;;;;;;;;;14.00;82.70;;;;;;5090840;28;19999;-35
2023/08/29 05:22:57;;;;;;;;;;;14.00;82.70;;;;;;5090964;28;19912;-34
2023/08/29 05:25:23;;;;;;;;;;;14.00;82.70;;;;;;5091944;28;19926;-35
2023/08/29 05:27:48;;;;;;;;;;;14.00;82.70;;;;;;5092005;28;20389;-33
2023/08/29 05:30:14;;;;;;;;;;;14.10;82.70;;;;;;5091950;28;19995;-35
2023/08/29 05:32:39;;;;;;;;;;;14.00;82.70;;;;;;5091946;28;19967;-34
2023/08/29 05:35:06;;;;;;;;;;;14.00;82.70;;;;;;5091830;28;19912;-35
2023/08/29 05:37:32;;;;;;;;;;;14.00;82.70;;;;;;5091776;28;19916;-34
2023/08/29 05:39:57;;;;;;;;;;;14.00;82.70;;;;;;5091840;28;20295;-35
2023/08/29 05:42:23;;;;;;;;;;;14.00;82.70;;;;;;5091851;28;19912;-34
2023/08/29 05:44:48;;;;;;;;;;;14.00;82.60;;;;;;5091590;28;19962;-35
2023/08/29 05:47:14;;;;;;;;;;;14.00;82.60;;;;;;5091657;28;19966;-35
2023/08/29 05:49:39;;;;;;;;;;;14.10;82.70;;;;;;5091588;28;20325;-35
2023/08/29 05:52:05;;;;;;;;;;;14.10;82.60;;;;;;5091769;28;19999;-35
2023/08/29 05:54:31;;;;;;;;;;;14.10;82.60;;;;;;5091805;28;19935;-36
2023/08/29 05:56:56;;;;;;;;;;;14.10;82.60;;;;;;5091942;28;19924;-36
2023/08/29 05:59:22;;;;;;;;;;;14.20;82.60;;;;;;5091482;28;19915;-35
2023/08/29 06:01:48;;;;;;;;;;;14.20;82.50;;;;;;5092031;28;19912;-35
2023/08/29 06:04:13;;;;;;;;;;;14.20;82.50;;;;;;5091709;28;19913;-34
2023/08/29 06:06:40;;;;;;;;;;;14.20;82.50;;;;;;5093865;28;19924;-33
2023/08/29 06:09:08;;;;;;;;;;;14.30;82.50;;;;;;5096020;28;20312;-35
2023/08/29 06:11:34;;;;;;;;;;;14.30;82.40;;;;;;5095967;28;20264;-34
2023/08/29 06:14:00;;;;;;;;;;;14.30;82.40;;;;;;5095831;28;20006;-35
2023/08/29 06:16:25;;;;;;;;;;;14.30;82.40;;;;;;5095796;28;19947;-35
2023/08/29 06:18:51;;;;;;;;;;;14.30;82.40;;;;;;5095745;28;19916;-34
2023/08/29 06:21:17;;;;;;;;;;;14.30;82.30;;;;;;5096009;28;20279;-35
2023/08/29 06:23:42;;;;;;;;;;;14.40;82.30;;;;;;5095639;28;19912;-33
2023/08/29 06:26:08;;;;;;;;;;;14.50;82.90;;;;;;5095842;28;19912;-34
2023/08/29 06:28:33;;;;;;;;;;;14.60;82.20;;;;;;5095558;28;20474;-34
2023/08/29 06:31:05;;;;;;;;;;;14.60;82.10;;;;;;5095568;28;19920;-34
2023/08/29 06:33:31;;;;;;;;;;;14.70;82.00;;;;;;5095471;28;20319;-36
2023/08/29 06:35:57;;;;;;;;;;;14.80;81.90;;;;;;5095454;28;19912;-33
2023/08/29 06:38:22;;;;;;;;;;;14.90;81.80;;;;;;5095360;28;19912;-34
2023/08/29 06:40:57;;;;;;;;;;;15.00;81.70;;;;;;5095646;28;19912;-32
2023/08/29 06:43:23;;;;;;;;;;;15.20;81.60;;;;;;5095309;28;20398;-34
2023/08/29 06:45:49;;;;;;;;;;;15.30;81.50;;;;;;5095400;28;19916;-34
2023/08/29 06:48:14;;;;;;;;;;;15.40;81.30;;;;;;5095600;28;19912;-34
2023/08/29 06:50:40;;;;;;;;;;;15.50;81.30;;;;;;5095054;28;20257;-35
2023/08/29 06:53:05;;;;;;;;;;;15.60;81.20;;;;;;5093865;28;19916;-34
2023/08/29 06:55:32;;;;;;;;;;;15.70;81.10;;;;;;5095079;28;19916;-35
2023/08/29 06:57:58;;;;;;;;;;;15.80;81.00;;;;;;5095135;28;20006;-35
2023/08/29 07:00:23;;;;;;;;;;;15.90;80.90;;;;;;5095157;28;19943;-34
2023/08/29 07:02:50;;;;;;;;;;;16.00;80.90;;;;;;5094978;28;19938;-29
2023/08/29 07:05:15;;;;;;;;;;;16.10;80.70;;;;;;5094979;28;19916;-30
2023/08/29 07:07:41;;;;;;;;;;;16.20;80.60;;;;;;5095263;28;19912;-30
2023/08/29 07:10:06;;;;;;;;;;;16.30;80.50;;;;;;5095279;28;20382;-29
2023/08/29 07:12:32;;;;;;;;;;;16.40;80.40;;;;;;5095074;28;20308;-32
2023/08/29 07:14:58;;;;;;;;;;;16.50;80.20;;;;;;5093760;28;19950;-29
2023/08/29 07:17:24;;;;;;;;;;;16.60;80.70;;;;;;5092876;28;19919;-29
2023/08/29 07:19:49;;;;;;;;;;;16.70;80.00;;;;;;5095279;28;19912;-28
2023/08/29 07:22:16;;;;;;;;;;;16.70;79.90;;;;;;5094786;28;20264;-34
2023/08/29 07:24:43;;;;;;;;;;;16.80;79.80;;;;;;5094826;28;20021;-29
2023/08/29 07:27:08;;;;;;;;;;;16.90;79.70;;;;;;5093400;28;19956;-29
2023/08/29 07:29:34;;;;;;;;;;;17.00;79.60;;;;;;5094916;28;19951;-31
2023/08/29 07:32:00;;;;;;;;;;;17.10;79.50;;;;;;5094769;28;20329;-34
2023/08/29 07:34:25;;;;;;;;;;;17.20;79.40;;;;;;5094381;28;20363;-29
2023/08/29 07:36:51;;;;;;;;;;;17.30;79.30;;;;;;5094384;28;20320;-32
2023/08/29 07:39:18;;;;;;;;;;;17.30;79.10;;;;;;5094822;28;20450;-29
2023/08/29 07:41:44;;;;;;;;;;;17.40;79.10;;;;;;5094284;28;19955;-31
2023/08/29 07:44:10;;;;;;;;;;;17.50;79.00;;;;;;5094587;28;19919;-29
2023/08/29 07:46:35;;;;;;;;;;;17.50;78.80;;;;;;5094274;28;19916;-29
2023/08/29 07:49:01;;;;;;;;;;;17.60;78.80;;;;;;5094470;28;20336;-29
2023/08/29 07:51:26;;;;;;;;;;;17.70;78.70;;;;;;5094464;28;19970;-29
2023/08/29 07:53:52;;;;;;;;;;;17.70;78.60;;;;;;5093939;28;20424;-31
2023/08/29 07:56:17;;;;;;;;;;;17.70;78.50;;;;;;5094010;28;19912;-31
2023/08/29 07:58:43;;;;;;;;;;;17.80;78.50;;;;;;5094025;28;19912;-31
2023/08/29 08:01:08;;;;;;;;;;;17.80;78.40;;;;;;5093997;28;19997;-28
2023/08/29 08:03:34;;;;;;;;;;;17.90;78.30;;;;;;5093952;28;19947;-30
2023/08/29 08:06:00;;;;;;;;;;;17.90;78.30;;;;;;5093686;28;20334;-31
2023/08/29 08:08:25;;;;;;;;;;;18.00;78.30;;;;;;5093778;28;19912;-29
2023/08/29 08:10:51;;;;;;;;;;;18.00;78.20;;;;;;5093880;28;20031;-29
2023/08/29 08:13:16;;;;;;;;;;;18.00;78.00;;;;;;5093685;28;20475;-30
2023/08/29 08:15:42;;;;;;;;;;;18.00;77.80;;;;;;5093931;28;19938;-30
2023/08/29 08:18:08;;;;;;;;;;;18.00;77.80;;;;;;5093730;28;19912;-29
2023/08/29 08:20:34;;;;;;;;;;;18.00;77.80;;;;;;5093589;28;19920;-31
2023/08/29 08:22:59;;;;;;;;;;;18.00;77.50;;;;;;5093585;28;19912;-29
2023/08/29 08:25:25;;;;;;;;;;;18.10;77.60;;;;;;5093425;28;20433;-28
2023/08/29 08:27:51;;;;;;;;;;;18.10;77.60;;;;;;5093349;28;20364;-29
2023/08/29 08:30:16;;;;;;;;;;;18.10;77.60;;;;;;5093298;28;19965;-28
2023/08/29 08:32:43;;;;;;;;;;;18.10;77.60;;;;;;5093483;28;20371;-29
2023/08/29 08:35:09;;;;;;;;;;;18.20;77.60;;;;;;5093274;28;20316;-29
2023/08/29 08:37:35;;;;;;;;;;;18.20;77.40;;;;;;5093218;28;19921;-37
2023/08/29 08:40:09;;;;;;;;;;;18.30;77.40;;;;;;5093199;28;20376;-31
2023/08/29 08:42:35;;;;;;;;;;;18.30;77.30;;;;;;5093560;28;19916;-30
2023/08/29 08:45:04;;;;;;;;;;;18.40;77.20;;;;;;5092954;28;19934;-29
2023/08/29 08:47:30;;;;;;;;;;;18.40;77.10;;;;;;5093374;28;20136;-42
2023/08/29 08:49:55;;;;;;;;;;;18.50;77.00;;;;;;5092839;28;19912;-28
2023/08/29 08:52:21;;;;;;;;;;;18.50;76.90;;;;;;5093139;28;19938;-30
2023/08/29 08:54:46;;;;;;;;;;;18.60;76.80;;;;;;5092764;28;19912;-33
2023/08/29 08:57:13;;;;;;;;;;;18.60;76.60;;;;;;5092802;28;19916;-30
2023/08/29 08:59:39;;;;;;;;;;;18.70;76.60;;;;;;5093040;28;19991;-43
2023/08/29 09:02:09;;;;;;;;;;;18.70;76.20;;;;;;5093195;28;19950;-43
2023/08/29 09:04:34;;;;;;;;;;;18.70;76.30;;;;;;5092954;28;19916;-43
2023/08/29 09:07:00;;;;;;;;;;;18.80;76.20;;;;;;5092595;28;20023;-46
2023/08/29 09:09:25;;;;;;;;;;;18.80;76.00;;;;;;5092673;28;19919;-45
2023/08/29 09:11:55;;;;;;;;;;;18.90;76.00;;;;;;5092716;28;20081;-43
2023/08/29 09:14:21;;;;;;;;;;;19.00;75.90;;;;;;5092319;28;19916;-42
2023/08/29 09:16:46;;;;;;;;;;;19.10;75.80;;;;;;5092573;28;19911;-43
2023/08/29 09:19:16;;;;;;;;;;;19.20;75.70;;;;;;5092558;28;19912;-42
2023/08/29 09:21:42;;;;;;;;;;;19.30;75.60;;;;;;5092330;28;20419;-41
2023/08/29 09:24:10;;;;;;;;;;;19.40;75.40;;;;;;5092388;28;19951;-45
2023/08/29 09:26:36;;;;;;;;;;;19.50;75.20;;;;;;5092406;28;19912;-43
2023/08/29 09:29:15;;;;;;;;;;;19.50;74.80;;;;;;5092309;28;19966;-43
2023/08/29 09:31:41;;;;;;;;;;;19.50;74.70;;;;;;5092338;28;20376;-41
2023/08/29 09:34:06;;;;;;;;;;;19.60;74.70;;;;;;5092007;28;20015;-44
2023/08/29 09:36:33;;;;;;;;;;;19.70;74.60;;;;;;5092179;28;19916;-43
2023/08/29 09:38:58;;;;;;;;;;;19.80;74.50;;;;;;5092249;28;19958;-42
2023/08/29 09:41:24;;;;;;;;;;;19.80;74.30;;;;;;5091765;28;19912;-44
2023/08/29 09:43:49;;;;;;;;;;;19.90;73.70;;;;;;5092078;28;19919;-47
2023/08/29 09:46:22;;;;;;;;;;;19.90;73.80;;;;;;5092039;28;19912;-45
2023/08/29 09:48:54;;;;;;;;;;;19.90;73.70;;;;;;5092282;28;20275;-44
2023/08/29 09:51:20;;;;;;;;;;;20.00;73.60;;;;;;5092002;28;19964;-31
2023/08/29 09:53:46;;;;;;;;;;;20.10;73.30;;;;;;5092073;28;19920;-35
2023/08/29 09:56:11;;;;;;;;;;;20.10;72.60;;;;;;5092041;28;20061;-31
2023/08/29 09:58:38;;;;;;;;;;;20.10;72.50;;;;;;5092004;28;20006;-29
2023/08/29 10:01:04;;;;;;;;;;;20.10;72.30;;;;;;5091990;28;19984;-31
2023/08/29 10:03:30;;;;;;;;;;;20.20;72.60;;;;;;5091841;28;19938;-43
2023/08/29 10:05:57;;;;;;;;;;;20.20;72.40;;;;;;5091655;28;20402;-45
2023/08/29 10:08:25;;;;;;;;;;;20.40;72.50;;;;;;5091924;28;20375;-43
2023/08/29 10:10:55;;;;;;;;;;;20.50;72.30;;;;;;5092122;28;19918;-37
2023/08/29 10:13:21;;;;;;;;;;;20.60;72.20;;;;;;5092187;28;19916;-38
2023/08/29 10:15:47;;;;;;;;;;;20.70;72.00;;;;;;5091858;28;19912;-37
2023/08/29 10:18:13;;;;;;;;;;;20.80;71.20;;;;;;5091949;28;19912;-36
2023/08/29 10:20:43;;;;;;;;;;;20.80;71.00;;;;;;5091806;28;19966;-36
2023/08/29 10:23:09;;;;;;;;;;;21.00;71.10;;;;;;5090623;28;19912;-36
2023/08/29 10:25:35;;;;;;;;;;;21.10;70.80;;;;;;5091614;28;19912;-36
2023/08/29 10:28:01;;;;;;;;;;;21.20;70.80;;;;;;5091696;28;20283;-36
2023/08/29 10:30:28;;;;;;;;;;;21.30;70.50;;;;;;5091812;28;20404;-35
2023/08/29 10:32:54;;;;;;;;;;;21.40;70.40;;;;;;5090451;28;19964;-35
2023/08/29 10:35:22;;;;;;;;;;;21.40;70.20;;;;;;5091541;28;19919;-36
2023/08/29 10:37:54;;;;;;;;;;;21.50;70.20;;;;;;5091519;28;19974;-36
2023/08/29 10:40:20;;;;;;;;;;;21.40;70.20;;;;;;5091699;28;20006;-36
2023/08/29 10:42:48;;;;;;;;;;;21.30;70.20;;;;;;5091410;28;19947;-34
2023/08/29 10:45:14;;;;;;;;;;;21.10;69.90;;;;;;5091060;28;19912;-35
2023/08/29 10:47:45;;;;;;;;;;;20.90;70.10;;;;;;5091458;28;19912;-35
2023/08/29 10:50:15;;;;;;;;;;;20.70;70.20;;;;;;5091229;28;20325;-35
2023/08/29 10:52:41;;;;;;;;;;;20.50;70.60;;;;;;5093642;28;19916;-36
2023/08/29 10:55:29;;;;;;;;;;;20.30;71.10;;;;;;5095048;28;19912;-35
2023/08/29 10:58:03;;;;;;;;;;;20.20;71.40;;;;;;5095111;28;20431;-36
2023/08/29 11:00:41;;;;;;;;;;;20.00;71.50;;;;;;5095026;28;19912;-36
2023/08/29 11:03:07;;;;;;;;;;;19.90;71.80;;;;;;5095104;28;20018;-36
2023/08/29 11:05:37;;;;;;;;;;;19.90;72.00;;;;;;5094839;28;19927;-36
2023/08/29 11:08:17;;;;;;;;;;;19.90;72.10;;;;;;5094971;28;19938;-37
2023/08/29 11:10:43;;;;;;;;;;;19.90;72.00;;;;;;5094964;28;19912;-36
2023/08/29 11:13:09;;;;;;;;;;;19.90;72.10;;;;;;5094875;28;19916;-36
2023/08/29 11:15:47;;;;;;;;;;;19.90;72.10;;;;;;5094702;28;20287;-35
2023/08/29 11:18:32;;;;;;;;;;;19.90;72.00;;;;;;5094804;28;19916;-36
2023/08/29 11:21:08;;;;;;;;;;;19.90;72.00;;;;;;5092623;28;19940;-36
2023/08/29 11:23:38;;;;;;;;;;;20.00;72.00;;;;;;5094670;28;20003;-35
2023/08/29 11:26:04;;;;;;;;;;;20.20;72.00;;;;;;5095105;28;19919;-34
2023/08/29 11:28:30;;;;;;;;;;;20.20;71.80;;;;;;5094502;28;20380;-35
2023/08/29 11:30:56;;;;;;;;;;;20.30;71.50;;;;;;5094505;28;19912;-35
2023/08/29 11:33:29;;;;;;;;;;;20.30;71.60;;;;;;5094404;28;20456;-35
2023/08/29 11:35:54;;;;;;;;;;;20.40;71.60;;;;;;5094269;28;19912;-31
2023/08/29 11:38:25;;;;;;;;;;;20.50;71.50;;;;;;5094643;28;20368;-31
2023/08/29 11:40:50;;;;;;;;;;;20.50;70.70;;;;;;5094359;28;19912;-31
2023/08/29 11:43:16;;;;;;;;;;;20.50;70.60;;;;;;5094291;28;20295;-31
2023/08/29 11:45:42;;;;;;;;;;;20.50;70.80;;;;;;5094109;28;19919;-29
2023/08/29 11:48:08;;;;;;;;;;;20.60;71.00;;;;;;5094108;28;20397;-29
2023/08/29 11:50:33;;;;;;;;;;;20.60;70.90;;;;;;5094262;28;20007;-29
2023/08/29 11:52:59;;;;;;;;;;;20.60;71.00;;;;;;5094013;28;20370;-32
2023/08/29 11:55:25;;;;;;;;;;;20.60;71.00;;;;;;5093888;28;19919;-30
2023/08/29 11:57:52;;;;;;;;;;;20.70;70.90;;;;;;5094295;28;19938;-30
2023/08/29 12:00:18;;;;;;;;;;;20.80;70.50;;;;;;5093870;28;19926;-34
2023/08/29 12:02:44;;;;;;;;;;;20.80;70.50;;;;;;5093822;28;19912;-32
2023/08/29 12:05:13;;;;;;;;;;;20.90;70.60;;;;;;5093178;28;19965;-31
2023/08/29 12:07:38;;;;;;;;;;;21.00;70.00;;;;;;5093654;28;19923;-32
2023/08/29 12:10:08;;;;;;;;;;;21.00;69.40;;;;;;5093740;28;20299;-32
2023/08/29 12:12:35;;;;;;;;;;;21.00;69.60;;;;;;5093543;28;19961;-34
2023/08/29 12:15:10;;;;;;;;;;;21.10;69.50;;;;;;5093546;28;20330;-47
2023/08/29 12:17:40;;;;;;;;;;;21.10;69.20;;;;;;5093525;28;20073;-43
2023/08/29 12:20:26;;;;;;;;;;;21.20;69.20;;;;;;5093673;28;20368;-43
2023/08/29 12:22:55;;;;;;;;;;;21.30;69.20;;;;;;5092938;28;19927;-43
2023/08/29 12:25:20;;;;;;;;;;;21.40;69.20;;;;;;5093206;28;20037;-43
2023/08/29 12:27:46;;;;;;;;;;;21.40;68.90;;;;;;5093385;28;19958;-31
2023/08/29 12:30:15;;;;;;;;;;;21.50;68.70;;;;;;5093382;28;19915;-43
2023/08/29 12:32:42;;;;;;;;;;;21.60;67.90;;;;;;5093162;28;19986;-41
2023/08/29 12:35:08;;;;;;;;;;;21.70;68.20;;;;;;5093208;28;19918;-35
2023/08/29 12:37:33;;;;;;;;;;;21.80;68.00;;;;;;5093086;28;20436;-36
2023/08/29 12:39:59;;;;;;;;;;;21.80;67.90;;;;;;5093088;28;20325;-36
2023/08/29 12:42:24;;;;;;;;;;;21.90;66.90;;;;;;5092956;28;19912;-35
2023/08/29 12:44:50;;;;;;;;;;;21.80;67.10;;;;;;5092701;28;19912;-35
2023/08/29 12:47:16;;;;;;;;;;;21.80;67.40;;;;;;5091842;28;19919;-36
2023/08/29 12:49:41;;;;;;;;;;;21.90;67.40;;;;;;5092573;28;20223;-36
2023/08/29 12:52:07;;;;;;;;;;;21.90;67.30;;;;;;5093003;28;20006;-36
2023/08/29 12:54:35;;;;;;;;;;;21.80;67.20;;;;;;5092316;28;19985;-36
2023/08/29 12:57:00;;;;;;;;;;;21.80;68.10;;;;;;5092701;28;19998;-36
2023/08/29 12:59:26;;;;;;;;;;;21.80;67.60;;;;;;5092902;28;20045;-36
2023/08/29 13:01:53;;;;;;;;;;;21.90;67.50;;;;;;5092534;28;19916;-35
2023/08/29 13:04:18;;;;;;;;;;;21.90;67.20;;;;;;5092781;28;19935;-36
2023/08/29 13:06:44;;;;;;;;;;;21.90;67.40;;;;;;5092491;28;19920;-37
2023/08/29 13:09:10;;;;;;;;;;;21.90;67.10;;;;;;5092406;28;20265;-36
2023/08/29 13:11:36;;;;;;;;;;;21.90;67.20;;;;;;5092974;28;20006;-36
2023/08/29 13:14:02;;;;;;;;;;;21.80;67.00;;;;;;5092252;28;20028;-34
2023/08/29 13:16:32;;;;;;;;;;;21.80;67.00;;;;;;5091432;28;19912;-36
2023/08/29 13:18:57;;;;;;;;;;;21.80;66.90;;;;;;5092279;28;20264;-36
2023/08/29 13:21:23;;;;;;;;;;;21.80;65.70;;;;;;5092254;28;19919;-34
2023/08/29 13:23:49;;;;;;;;;;;21.80;65.70;;;;;;5092194;28;19962;-35
2023/08/29 13:26:14;;;;;;;;;;;21.80;66.00;;;;;;5092326;28;20021;-35
2023/08/29 13:28:40;;;;;;;;;;;21.80;65.40;;;;;;5092440;28;19951;-36
2023/08/29 13:31:07;;;;;;;;;;;21.80;65.60;;;;;;5092288;28;19919;-35
2023/08/29 13:33:32;;;;;;;;;;;21.90;65.70;;;;;;5091945;28;19958;-36
2023/08/29 13:35:58;;;;;;;;;;;21.90;65.70;;;;;;5091888;28;19912;-35
2023/08/29 13:38:23;;;;;;;;;;;22.00;65.80;;;;;;5092162;28;19969;-36
2023/08/29 13:40:51;;;;;;;;;;;22.00;65.60;;;;;;5092189;28;20252;-36
2023/08/29 13:43:17;;;;;;;;;;;22.10;65.60;;;;;;5091866;28;19912;-34
2023/08/29 13:45:42;;;;;;;;;;;22.10;65.20;;;;;;5091811;28;20003;-36
2023/08/29 13:48:08;;;;;;;;;;;22.10;65.10;;;;;;5091902;28;19955;-37
2023/08/29 13:50:33;;;;;;;;;;;22.10;64.90;;;;;;5091583;28;20065;-35
2023/08/29 13:52:59;;;;;;;;;;;22.10;64.90;;;;;;5091445;28;19923;-35
2023/08/29 13:55:26;;;;;;;;;;;22.00;64.70;;;;;;5091585;28;19912;-35
2023/08/29 13:57:51;;;;;;;;;;;22.00;65.20;;;;;;5091866;28;19919;-36
2023/08/29 14:00:17;;;;;;;;;;;22.10;65.30;;;;;;5091765;28;19920;-33
2023/08/29 14:02:43;;;;;;;;;;;22.30;65.20;;;;;;5091679;28;20000;-34
2023/08/29 14:05:08;;;;;;;;;;;22.50;64.90;;;;;;5091274;28;19916;-35
2023/08/29 14:07:34;;;;;;;;;;;22.50;63.70;;;;;;5091515;28;19966;-36
2023/08/29 14:09:59;;;;;;;;;;;22.60;63.40;;;;;;5091274;28;19969;-36
2023/08/29 14:12:25;;;;;;;;;;;22.60;62.80;;;;;;5091337;28;19930;-35